Southern Ontario METAR Reports

CYSN - St.Catharines
Updated: 07/21/2017 2:00pm
Overcast
Overcast
 Wind from NW
Wind: NW 19 km/h
Temperature: 28°C
Heat Index: 29°C
Dew Point: 19°C
Humidity: 58%
Barometer: 1012.9 hPa
Clouds: Overcast
Visibility: 19 km
Cloud details: Few Clouds 1097 m
Partly cloudy 3658 m
Overcast 7620 m
2017/07/21 18:00 CYSN 211800Z 32010KT 12SM FEW036 SCT120 OVC250 28/19 A2991 RMK CU1AC2CI5 SLP130 DENSITY ALT 2000FT
CYHM - Hamilton
Updated: 07/21/2017 2:00pm
Mostly cloudy
Mostly cloudy
 Wind from W
Wind: W 15 km/h
Temperature: 27°C
Heat Index: 28°C
Dew Point: 18°C
Humidity: 58%
Barometer: 1014.2 hPa
Clouds: Mostly cloudy
Visibility: 24 km
Cloud details: Few Clouds 1219 m
Mostly cloudy 7010 m
2017/07/21 18:00 CYHM 211800Z 28008KT 230V320 15SM FEW040 BKN230 27/18 A2995 RMK CU1CI5 SLP140 DENSITY ALT 2400FT
 
CYYZ - Toronto
Updated: 07/21/2017 2:00pm
Mostly cloudy
Mostly cloudy
 Wind from NW
Wind: NW 22 km/h
Temperature: 29°C
Heat Index: 28°C
Dew Point: 14°C
Humidity: 40%
Barometer: 1013.2 hPa
Clouds: Mostly cloudy
Visibility: 24 km
Cloud details: Mostly cloudy 7010 m
2017/07/21 18:00 CYYZ 211800Z 32012KT 15SM BKN230 29/14 A2992 RMK CS7 HALO SLP132 DENSITY ALT 2300FT
CYKF - Waterloo
Updated: 07/21/2017 2:00pm
Clear
Clear
 Wind from NW
Wind: NW 20 km/h
Temperature: 28°C
Heat Index: 28°C
Dew Point: 16°C
Humidity: 48%
Barometer: 1014.6 hPa
Clouds: Clear
Visibility: 14 km
2017/07/21 18:00 CYKF 211800Z AUTO 31011KT 9SM CLR 28/16 A2996 RMK SLP144 DENSITY ALT 2600FT
 
CYXU - London
Updated: 07/21/2017 2:00pm
Mostly cloudy
Mostly cloudy
 Wind from NW
Wind: NW 13 km/h
Temperature: 28°C
Heat Index: 29°C
Dew Point: 18°C
Humidity: 55%
Barometer: 1015.2 hPa
Clouds: Mostly cloudy
Visibility: 24 km
Cloud details: Few Clouds 1311 m
Mostly cloudy 5486 m
Mostly cloudy 8534 m
2017/07/21 18:00 CYXU 211800Z 32007KT 290V350 15SM FEW043 BKN180 BKN280 28/18 A2998 RMK CU1AS5CI2 CU TR SLP148 DENSITY ALT 2600FT
CYQG - Windsor
Updated: 07/21/2017 2:00pm
Mostly cloudy
Mostly cloudy
 Wind from N
Wind: N 9 km/h
Temperature: 29°C
Heat Index: 29°C
Dew Point: 18°C
Humidity: 51%
Barometer: 1014.9 hPa
Clouds: Mostly cloudy
Visibility: 19 km
Cloud details: Few Clouds 1524 m
Mostly cloudy 8534 m
2017/07/21 18:00 CYQG 211800Z 36005KT 350V070 12SM FEW050 BKN280 29/18 A2997 RMK CU1CI7 CU TR SLP147 DENSITY ALT 2300FT
 
CYZR - Sarnia
Updated: 07/21/2017 2:00pm
Clear
Clear
 Wind from N
Wind: N 11 km/h
Temperature: 25°C
Dew Point: 17°C
Humidity: 61%
Barometer: 1015.2 hPa
Clouds: Clear
Visibility: 14 km
2017/07/21 18:00 CYZR 211800Z AUTO 36006KT 340V040 9SM CLR 25/17 A2998 RMK SLP152 DENSITY ALT 1800FT
CYVV - Wiarton
Updated: 07/21/2017 2:00pm
Few Clouds
Few Clouds
 Wind from WNW
Wind: WNW 9 km/h
Temperature: 25°C
Dew Point: 16°C
Humidity: 57%
Barometer: 1014.2 hPa
Clouds: Few Clouds
Visibility: 24 km
Cloud details: Few Clouds 7620 m
2017/07/21 18:00 CYVV 211800Z 29005KT 250V330 15SM FEW250 25/16 A2995 RMK CI1 SLP143 DENSITY ALT 2000FT
 
CYPQ - Peterborough
Updated: 07/21/2017 2:00pm
Clear
Clear
 Wind from WNW
Wind: WNW 22 km/h, Gust: 31 km/h
Temperature: 27°C
Heat Index: 28°C
Dew Point: 17°C
Humidity: 54%
Barometer: 1012.5 hPa
Clouds: Clear
Visibility: 14 km
2017/07/21 18:00 CYPQ 211800Z AUTO 30012G17KT 9SM CLR 27/17 A2990 RMK SLP124 DENSITY ALT 2100FT
CYTR - Trenton
Updated: 07/21/2017 2:00pm
Overcast
Overcast
 Wind from W
Wind: W 19 km/h, Gust: 30 km/h
Temperature: 28°C
Heat Index: 28°C
Dew Point: 16°C
Humidity: 48%
Barometer: 1011.5 hPa
Clouds: Overcast
Visibility: 24 km
Cloud details: Overcast 7925 m
2017/07/21 18:00 CYTR 211800Z 27010G16KT 15SM OVC260 28/16 A2987 RMK CI8 SLP115